createdAt,value
2019-04-28T00:02:12.337Z,8.80
2019-04-28T00:04:41.521Z,8.70
2019-04-28T00:07:11.948Z,8.70
2019-04-28T00:09:41.474Z,8.70
2019-04-28T00:12:11.474Z,8.60
2019-04-28T00:14:41.842Z,8.50
2019-04-28T00:17:11.089Z,8.50
2019-04-28T00:19:40.926Z,8.40
2019-04-28T00:22:11.289Z,8.40
2019-04-28T00:24:45.219Z,8.30
2019-04-28T00:27:14.351Z,8.30
2019-04-28T00:29:46.230Z,8.30
2019-04-28T00:32:14.237Z,8.30
2019-04-28T00:34:42.647Z,8.20
2019-04-28T00:37:12.799Z,8.20
2019-04-28T00:39:42.305Z,8.20
2019-04-28T00:42:11.820Z,8.20
2019-04-28T00:44:43.066Z,8.20
2019-04-28T00:47:11.058Z,8.20
2019-04-28T00:49:48.888Z,8.20
2019-04-28T00:52:18.983Z,8.20
2019-04-28T00:54:48.274Z,8.20
2019-04-28T00:57:17.050Z,8.10
2019-04-28T00:59:55.189Z,8.10
2019-04-28T01:02:26.836Z,8.10
2019-04-28T01:04:55.840Z,8.10
2019-04-28T01:07:25.163Z,8.10
2019-04-28T01:09:53.705Z,8.10
2019-04-28T01:12:22.206Z,8.10
2019-04-28T01:14:52.926Z,8.10
2019-04-28T01:17:25.255Z,8.10
2019-04-28T01:20:07.435Z,8.10
2019-04-28T01:22:36.096Z,8.10
2019-04-28T01:25:06.531Z,8.10
2019-04-28T01:27:36.608Z,8.10
2019-04-28T01:30:10.693Z,8.00
2019-04-28T01:32:43.078Z,8.00
2019-04-28T01:35:11.909Z,8.00
2019-04-28T01:37:40.835Z,7.90
2019-04-28T01:40:10.238Z,7.90
2019-04-28T01:42:41.253Z,7.80
2019-04-28T01:45:10.628Z,7.80
2019-04-28T01:47:40.512Z,7.80
2019-04-28T01:50:10.250Z,7.80
2019-04-28T01:52:39.917Z,7.70
2019-04-28T01:55:10.101Z,7.70
2019-04-28T01:57:40.006Z,7.60
2019-04-28T02:00:22.291Z,7.60
2019-04-28T02:02:42.314Z,7.60
2019-04-28T02:05:11.240Z,7.60
2019-04-28T02:07:40.702Z,7.60
2019-04-28T02:10:10.390Z,7.60
2019-04-28T02:12:40.355Z,7.60
2019-04-28T02:15:10.479Z,7.70
2019-04-28T02:17:40.176Z,7.70
2019-04-28T02:20:10.362Z,7.70
2019-04-28T02:22:57.034Z,7.60
2019-04-28T02:25:25.427Z,7.60
2019-04-28T02:27:53.867Z,7.50
2019-04-28T02:30:40.194Z,7.50
2019-04-28T02:32:52.412Z,7.50
2019-04-28T02:35:21.475Z,7.40
2019-04-28T02:37:50.560Z,7.40
2019-04-28T02:40:20.782Z,7.30
2019-04-28T02:42:51.948Z,7.30
2019-04-28T02:45:22.151Z,7.30
2019-04-28T02:47:52.528Z,7.40
2019-04-28T02:50:35.882Z,7.30
2019-04-28T02:53:05.991Z,7.30
2019-04-28T02:55:34.402Z,7.30
2019-04-28T02:58:02.847Z,7.20
2019-04-28T03:00:32.008Z,7.20
2019-04-28T03:03:01.326Z,7.10
2019-04-28T03:05:33.038Z,7.20
2019-04-28T03:08:01.206Z,7.10
2019-04-28T03:10:31.302Z,7.20
2019-04-28T03:13:01.001Z,7.20
2019-04-28T03:15:30.442Z,7.20
2019-04-28T03:18:01.814Z,7.20
2019-04-28T03:20:30.528Z,7.20
2019-04-28T03:23:00.874Z,7.10
2019-04-28T03:25:50.493Z,7.10
2019-04-28T03:28:22.497Z,7.10
2019-04-28T03:30:54.395Z,7.20
2019-04-28T03:33:26.107Z,7.20
2019-04-28T03:35:55.133Z,7.20
2019-04-28T03:38:23.651Z,7.30
2019-04-28T03:40:52.721Z,7.40
2019-04-28T03:43:21.448Z,7.40
2019-04-28T03:45:51.635Z,7.50
2019-04-28T03:48:21.063Z,7.50
2019-04-28T03:50:51.337Z,7.60
2019-04-28T03:53:20.750Z,7.50
2019-04-28T03:55:51.253Z,7.50
2019-04-28T03:58:23.604Z,7.50
2019-04-28T04:00:50.675Z,7.60
2019-04-28T04:03:20.928Z,7.60
2019-04-28T04:05:50.912Z,7.60
2019-04-28T04:08:20.874Z,7.60
2019-04-28T04:10:53.900Z,7.60
2019-04-28T04:13:24.379Z,7.60
2019-04-28T04:16:01.606Z,7.60
2019-04-28T04:18:31.993Z,7.60
2019-04-28T04:21:00.871Z,7.60
2019-04-28T04:23:30.841Z,7.60
2019-04-28T04:26:01.791Z,7.60
2019-04-28T04:28:30.673Z,7.60
2019-04-28T04:31:02.489Z,7.60
2019-04-28T04:33:31.075Z,7.70
2019-04-28T04:36:01.669Z,7.70
2019-04-28T04:38:31.261Z,7.70
2019-04-28T04:41:01.575Z,7.60
2019-04-28T04:43:31.237Z,7.60
2019-04-28T04:46:14.255Z,7.70
2019-04-28T04:48:44.336Z,7.60
2019-04-28T04:51:12.750Z,7.60
2019-04-28T04:53:41.712Z,7.70
2019-04-28T04:56:10.592Z,7.70
2019-04-28T04:58:40.697Z,7.70
2019-04-28T05:01:11.151Z,7.70
2019-04-28T05:03:49.676Z,7.80
2019-04-28T05:06:33.855Z,7.80
2019-04-28T05:09:05.776Z,7.80
2019-04-28T05:11:34.569Z,7.80
2019-04-28T05:14:03.329Z,7.90
2019-04-28T05:16:31.871Z,7.90
2019-04-28T05:19:00.417Z,7.90
2019-04-28T05:21:32.797Z,7.90
2019-04-28T05:24:15.645Z,7.90
2019-04-28T05:26:47.358Z,8.00
2019-04-28T05:29:11.002Z,8.00
2019-04-28T05:31:40.141Z,8.00
2019-04-28T05:34:11.155Z,8.00
2019-04-28T05:36:43.889Z,8.10
2019-04-28T05:39:10.468Z,8.10
2019-04-28T05:41:40.214Z,8.10
2019-04-28T05:44:10.093Z,8.10
2019-04-28T05:46:41.028Z,8.20
2019-04-28T05:49:11.246Z,8.20
2019-04-28T05:51:44.319Z,8.30
2019-04-28T05:54:14.376Z,8.30
2019-04-28T05:57:02.423Z,8.30
2019-04-28T05:59:50.741Z,8.30
2019-04-28T06:02:21.847Z,8.30
2019-04-28T06:04:50.834Z,8.40
2019-04-28T06:07:23.747Z,8.50
2019-04-28T06:09:53.994Z,8.60
2019-04-28T06:12:22.742Z,8.70
2019-04-28T06:14:51.429Z,8.80
2019-04-28T06:17:20.668Z,8.90
2019-04-28T06:19:50.429Z,9.00
2019-04-28T06:22:19.068Z,9.00
2019-04-28T06:24:47.499Z,9.00
2019-04-28T06:27:15.925Z,9.00
2019-04-28T06:29:44.407Z,9.00
2019-04-28T06:32:13.294Z,8.90
2019-04-28T06:34:41.791Z,8.90
2019-04-28T06:37:10.340Z,8.90
2019-04-28T06:39:38.772Z,9.00
2019-04-28T06:42:07.176Z,8.90
2019-04-28T06:44:36.430Z,8.90
2019-04-28T06:47:05.035Z,9.00
2019-04-28T06:49:33.701Z,9.00
2019-04-28T06:52:02.585Z,9.00
2019-04-28T06:54:31.215Z,9.00
2019-04-28T06:56:59.802Z,9.00
2019-04-28T06:59:28.207Z,9.00
2019-04-28T07:01:56.969Z,9.00
2019-04-28T07:04:25.746Z,9.10
2019-04-28T07:06:54.153Z,9.10
2019-04-28T07:09:22.641Z,9.10
2019-04-28T07:11:51.551Z,9.10
2019-04-28T07:14:20.013Z,9.10
2019-04-28T07:16:48.576Z,9.20
2019-04-28T07:19:16.968Z,9.20
2019-04-28T07:21:49.750Z,9.20
2019-04-28T07:24:18.179Z,9.20
2019-04-28T07:26:46.811Z,9.20
2019-04-28T07:29:15.214Z,9.20
2019-04-28T07:31:43.996Z,9.30
2019-04-28T07:34:12.409Z,9.30
2019-04-28T07:36:40.810Z,9.40
2019-04-28T07:39:09.452Z,9.50
2019-04-28T07:41:37.861Z,9.60
2019-04-28T07:44:06.256Z,9.70
2019-04-28T07:46:34.691Z,9.90
2019-04-28T07:49:03.430Z,10.10
2019-04-28T07:51:50.045Z,10.20
2019-04-28T07:54:20.622Z,10.30
2019-04-28T07:56:49.040Z,10.50
2019-04-28T07:59:17.710Z,10.60
2019-04-28T08:01:47.109Z,10.60
2019-04-28T08:04:15.515Z,10.60
2019-04-28T08:06:44.168Z,10.70
2019-04-28T08:09:14.917Z,10.70
2019-04-28T08:11:43.317Z,10.80
2019-04-28T08:14:11.916Z,10.80
2019-04-28T08:16:40.681Z,10.90
2019-04-28T08:19:09.366Z,10.90
2019-04-28T08:21:38.091Z,11.00
2019-04-28T08:24:06.846Z,11.10
2019-04-28T08:26:36.362Z,11.10
2019-04-28T08:29:04.929Z,11.10
2019-04-28T08:31:34.967Z,11.10
2019-04-28T08:34:04.998Z,11.10
2019-04-28T08:36:33.433Z,11.10
2019-04-28T08:39:02.164Z,11.10
2019-04-28T08:41:30.672Z,11.10
2019-04-28T08:43:59.131Z,11.10
2019-04-28T08:46:27.834Z,11.20
2019-04-28T08:48:56.250Z,11.20
2019-04-28T08:51:24.794Z,11.20
2019-04-28T08:53:53.305Z,11.20
2019-04-28T08:56:21.730Z,11.30
2019-04-28T08:58:50.170Z,11.30
2019-04-28T09:01:18.854Z,11.40
2019-04-28T09:03:47.426Z,11.40
2019-04-28T09:06:16.129Z,11.50
2019-04-28T09:08:44.819Z,11.70
2019-04-28T09:11:13.494Z,12.00
2019-04-28T09:13:43.757Z,12.10
2019-04-28T09:16:12.515Z,12.30
2019-04-28T09:18:41.087Z,12.60
2019-04-28T09:21:09.512Z,12.70
2019-04-28T09:23:37.917Z,12.70
2019-04-28T09:26:06.559Z,12.80
2019-04-28T09:28:35.510Z,12.70
2019-04-28T09:31:04.250Z,12.60
2019-04-28T09:33:32.663Z,12.50
2019-04-28T09:36:01.193Z,12.50
2019-04-28T09:38:29.598Z,12.40
2019-04-28T09:40:58.296Z,12.40
2019-04-28T09:43:28.368Z,12.40
2019-04-28T09:45:58.418Z,12.30
2019-04-28T09:48:26.942Z,12.30
2019-04-28T09:50:56.032Z,12.20
2019-04-28T09:53:24.426Z,12.10
2019-04-28T09:55:53.082Z,12.10
2019-04-28T09:58:21.533Z,12.10
2019-04-28T10:00:50.009Z,12.10
2019-04-28T10:03:18.426Z,12.10
2019-04-28T10:05:47.146Z,12.10
2019-04-28T10:08:16.029Z,12.10
2019-04-28T10:10:44.437Z,12.10
2019-04-28T10:13:13.271Z,12.10
2019-04-28T10:15:42.005Z,12.20
2019-04-28T10:18:10.405Z,12.30
2019-04-28T10:20:38.849Z,12.40
2019-04-28T10:23:07.578Z,12.50
2019-04-28T10:25:36.070Z,12.50
2019-04-28T10:28:05.854Z,12.60
2019-04-28T10:30:34.343Z,12.70
2019-04-28T10:33:02.858Z,12.70
2019-04-28T10:35:31.923Z,12.70
2019-04-28T10:38:00.617Z,12.70
2019-04-28T10:40:47.687Z,12.70
2019-04-28T10:43:16.430Z,12.70
2019-04-28T10:45:46.482Z,12.60
2019-04-28T10:48:15.006Z,12.70
2019-04-28T10:50:43.630Z,12.70
2019-04-28T10:53:12.045Z,12.70
2019-04-28T10:55:41.467Z,12.80
2019-04-28T10:58:10.875Z,12.90
2019-04-28T11:00:40.650Z,13.00
2019-04-28T11:03:09.608Z,13.00
2019-04-28T11:05:42.712Z,13.10
2019-04-28T11:08:29.249Z,13.00
2019-04-28T11:10:59.464Z,13.00
2019-04-28T11:13:28.373Z,13.10
2019-04-28T11:15:57.074Z,13.10
2019-04-28T11:18:25.633Z,13.10
2019-04-28T11:20:54.050Z,13.20
2019-04-28T11:23:23.296Z,13.20
2019-04-28T11:25:52.096Z,13.20
2019-04-28T11:28:20.660Z,13.20
2019-04-28T11:30:49.657Z,13.10
2019-04-28T11:33:32.006Z,13.00
2019-04-28T11:36:00.827Z,12.80
2019-04-28T11:38:29.578Z,12.70
2019-04-28T11:40:58.062Z,12.60
2019-04-28T11:43:27.379Z,12.50
2019-04-28T11:45:56.160Z,12.50
2019-04-28T11:48:24.662Z,12.40
2019-04-28T11:50:53.098Z,12.40
2019-04-28T11:53:22.114Z,12.30
2019-04-28T11:55:50.523Z,12.40
2019-04-28T11:58:19.058Z,12.40
2019-04-28T12:00:48.081Z,12.50
2019-04-28T12:03:16.719Z,12.60
2019-04-28T12:05:46.786Z,12.70
2019-04-28T12:08:15.272Z,12.90
2019-04-28T12:10:52.053Z,13.00
2019-04-28T12:13:31.271Z,13.10
2019-04-28T12:16:17.787Z,13.20
2019-04-28T12:18:48.209Z,13.30
2019-04-28T12:21:16.994Z,13.40
2019-04-28T12:23:45.445Z,13.40
2019-04-28T12:26:13.866Z,13.50
2019-04-28T12:28:42.374Z,13.50
2019-04-28T12:31:12.338Z,13.60
2019-04-28T12:33:42.210Z,13.70
2019-04-28T12:36:10.981Z,13.70
2019-04-28T12:38:39.776Z,13.80
2019-04-28T12:41:08.394Z,13.80
2019-04-28T12:43:36.815Z,13.80
2019-04-28T12:46:05.640Z,13.80
2019-04-28T12:48:34.196Z,13.80
2019-04-28T12:51:02.627Z,13.70
2019-04-28T12:53:31.634Z,13.60
2019-04-28T12:56:00.166Z,13.50
2019-04-28T12:58:28.600Z,13.40
2019-04-28T13:01:07.858Z,13.30
2019-04-28T13:03:40.606Z,13.20
2019-04-28T13:06:10.673Z,13.10
2019-04-28T13:08:39.448Z,13.10
2019-04-28T13:11:07.866Z,13.00
2019-04-28T13:13:36.369Z,13.00
2019-04-28T13:16:04.820Z,13.00
2019-04-28T13:18:33.247Z,13.10
2019-04-28T13:21:02.025Z,13.30
2019-04-28T13:23:30.472Z,13.40
2019-04-28T13:25:59.204Z,13.40
2019-04-28T13:28:27.705Z,13.50
2019-04-28T13:30:56.413Z,13.60
2019-04-28T13:33:24.825Z,13.70
2019-04-28T13:35:53.727Z,13.80
2019-04-28T13:38:22.438Z,14.00
2019-04-28T13:40:51.158Z,14.10
2019-04-28T13:43:19.567Z,14.30
2019-04-28T13:45:48.026Z,14.40
2019-04-28T13:48:16.488Z,14.50
2019-04-28T13:50:44.894Z,14.70
2019-04-28T13:53:13.446Z,14.80
2019-04-28T13:55:46.526Z,15.00
2019-04-28T13:58:17.164Z,15.10
2019-04-28T14:01:04.095Z,15.30
2019-04-28T14:03:34.174Z,15.40
2019-04-28T14:06:10.038Z,15.50
2019-04-28T14:08:38.700Z,15.60
2019-04-28T14:11:07.428Z,15.60
2019-04-28T14:13:37.113Z,15.70
2019-04-28T14:16:05.622Z,15.70
2019-04-28T14:18:34.050Z,15.70
2019-04-28T14:21:02.503Z,15.80
2019-04-28T14:23:30.904Z,15.80
2019-04-28T14:25:59.343Z,15.90
2019-04-28T14:28:27.794Z,15.90
2019-04-28T14:30:56.582Z,16.00
2019-04-28T14:33:25.222Z,16.10
2019-04-28T14:35:54.257Z,16.10
2019-04-28T14:38:23.163Z,16.10
2019-04-28T14:40:51.572Z,16.20
2019-04-28T14:43:20.017Z,16.30
2019-04-28T14:45:48.432Z,16.30
2019-04-28T14:48:17.195Z,16.40
2019-04-28T14:50:45.882Z,16.30
2019-04-28T14:53:14.511Z,16.40
2019-04-28T14:55:43.230Z,16.50
2019-04-28T14:58:12.151Z,16.50
2019-04-28T15:00:48.515Z,16.50
2019-04-28T15:03:18.771Z,16.50
2019-04-28T15:05:51.535Z,16.40
2019-04-28T15:08:30.788Z,16.40
2019-04-28T15:11:17.848Z,16.40
2019-04-28T15:13:48.449Z,16.40
2019-04-28T15:16:17.137Z,16.40
2019-04-28T15:18:46.614Z,16.50
2019-04-28T15:21:15.059Z,16.60
2019-04-28T15:23:44.116Z,16.60
2019-04-28T15:26:12.840Z,16.70
2019-04-28T15:28:41.610Z,16.60
2019-04-28T15:31:10.394Z,16.60
2019-04-28T15:33:38.822Z,16.60
2019-04-28T15:36:07.613Z,16.50
2019-04-28T15:38:36.329Z,16.50
2019-04-28T15:41:06.198Z,16.50
2019-04-28T15:43:34.782Z,16.50
2019-04-28T15:46:03.635Z,16.40
2019-04-28T15:48:32.328Z,16.40
2019-04-28T15:51:01.012Z,16.40
2019-04-28T15:53:30.463Z,16.20
2019-04-28T15:56:06.115Z,16.10
2019-04-28T15:58:39.077Z,16.00
2019-04-28T16:01:07.725Z,15.90
2019-04-28T16:03:36.178Z,15.80
2019-04-28T16:06:06.846Z,15.80
2019-04-28T16:08:35.324Z,15.70
2019-04-28T16:11:04.178Z,15.60
2019-04-28T16:13:32.936Z,15.60
2019-04-28T16:16:01.389Z,15.50
2019-04-28T16:18:30.362Z,15.50
2019-04-28T16:20:58.794Z,15.60
2019-04-28T16:23:27.265Z,15.50
2019-04-28T16:25:55.867Z,15.40
2019-04-28T16:28:24.802Z,15.20
2019-04-28T16:30:53.232Z,15.10
2019-04-28T16:33:22.067Z,15.00
2019-04-28T16:35:50.493Z,14.90
2019-04-28T16:38:18.923Z,14.90
2019-04-28T16:40:49.582Z,14.80
2019-04-28T16:43:19.710Z,14.70
2019-04-28T16:45:48.137Z,14.60
2019-04-28T16:48:16.603Z,14.60
2019-04-28T16:50:44.999Z,14.60
2019-04-28T16:53:13.448Z,14.70
2019-04-28T16:55:46.275Z,14.70
2019-04-28T16:58:28.701Z,14.70
2019-04-28T17:00:59.350Z,14.70
2019-04-28T17:03:29.591Z,14.60
2019-04-28T17:05:58.186Z,14.70
2019-04-28T17:08:27.684Z,14.60
2019-04-28T17:10:56.105Z,14.60
2019-04-28T17:13:24.559Z,14.50
2019-04-28T17:15:53.339Z,14.40
2019-04-28T17:18:21.770Z,14.40
2019-04-28T17:20:50.210Z,14.30
2019-04-28T17:23:18.986Z,14.30
2019-04-28T17:25:47.685Z,14.20
2019-04-28T17:28:16.184Z,14.10
2019-04-28T17:30:44.642Z,14.10
2019-04-28T17:33:13.368Z,14.00
2019-04-28T17:35:41.824Z,13.90
2019-04-28T17:38:10.822Z,13.80
2019-04-28T17:40:39.339Z,13.80
2019-04-28T17:43:08.324Z,13.70
2019-04-28T17:45:37.359Z,13.70
2019-04-28T17:48:13.509Z,13.60
2019-04-28T17:50:45.101Z,13.60
2019-04-28T17:53:12.299Z,13.50
2019-04-28T17:55:41.858Z,13.40
2019-04-28T17:58:10.309Z,13.40
2019-04-28T18:00:56.148Z,13.30
2019-04-28T18:03:33.131Z,13.30
2019-04-28T18:06:16.768Z,13.20
2019-04-28T18:08:34.184Z,13.20
2019-04-28T18:11:03.443Z,13.10
2019-04-28T18:13:32.290Z,13.10
2019-04-28T18:16:08.516Z,13.00
2019-04-28T18:18:38.846Z,13.00
2019-04-28T18:21:07.265Z,12.90
2019-04-28T18:23:35.723Z,12.80
2019-04-28T18:26:04.253Z,12.80
2019-04-28T18:28:32.684Z,12.70
2019-04-28T18:31:14.835Z,12.70
2019-04-28T18:34:01.147Z,12.70
2019-04-28T18:36:34.305Z,12.70
2019-04-28T18:39:06.818Z,12.60
2019-04-28T18:41:45.644Z,12.60
2019-04-28T18:44:21.484Z,12.50
2019-04-28T18:46:50.217Z,12.40
2019-04-28T18:49:18.751Z,12.40
2019-04-28T18:51:47.163Z,12.30
2019-04-28T18:54:16.458Z,12.30
2019-04-28T18:56:44.943Z,12.30
2019-04-28T18:59:13.360Z,12.30
2019-04-28T19:01:50.243Z,12.20
2019-04-28T19:04:19.965Z,12.10
2019-04-28T19:06:48.770Z,12.10
2019-04-28T19:09:18.869Z,12.00
2019-04-28T19:11:51.993Z,12.00
2019-04-28T19:14:28.976Z,11.90
2019-04-28T19:17:05.266Z,11.90
2019-04-28T19:19:36.074Z,11.90
2019-04-28T19:22:04.675Z,11.80
2019-04-28T19:24:33.580Z,11.70
2019-04-28T19:27:02.513Z,11.70
2019-04-28T19:29:31.049Z,11.60
2019-04-28T19:31:59.501Z,11.50
2019-04-28T19:34:28.421Z,11.50
2019-04-28T19:36:56.852Z,11.40
2019-04-28T19:39:25.295Z,11.40
2019-04-28T19:41:54.084Z,11.30
2019-04-28T19:44:22.938Z,11.30
2019-04-28T19:46:51.786Z,11.30
2019-04-28T19:49:23.070Z,11.30
2019-04-28T19:51:51.558Z,11.20
2019-04-28T19:54:21.958Z,11.20
2019-04-28T19:56:52.267Z,11.10
2019-04-28T19:59:25.740Z,11.00
2019-04-28T20:01:54.434Z,10.90
2019-04-28T20:04:23.734Z,10.90
2019-04-28T20:06:52.454Z,10.80
2019-04-28T20:09:21.334Z,10.80
2019-04-28T20:11:49.835Z,10.80
2019-04-28T20:14:18.728Z,10.80
2019-04-28T20:16:47.342Z,10.80
2019-04-28T20:19:15.942Z,10.70
2019-04-28T20:21:44.794Z,10.60
2019-04-28T20:24:13.238Z,10.60
2019-04-28T20:26:42.312Z,10.50
2019-04-28T20:29:11.083Z,10.50
2019-04-28T20:31:39.515Z,10.50
2019-04-28T20:34:08.114Z,10.50
2019-04-28T20:36:44.124Z,10.50
2019-04-28T20:39:29.570Z,10.40
2019-04-28T20:42:00.058Z,10.40
2019-04-28T20:44:28.804Z,10.30
2019-04-28T20:46:57.736Z,10.30
2019-04-28T20:49:26.225Z,10.30
2019-04-28T20:51:54.803Z,10.20
2019-04-28T20:54:23.268Z,10.20
2019-04-28T20:56:51.678Z,10.20
2019-04-28T20:59:21.654Z,10.10
2019-04-28T21:01:50.108Z,10.00
2019-04-28T21:04:18.546Z,10.00
2019-04-28T21:06:46.981Z,10.00
2019-04-28T21:09:15.429Z,9.90
2019-04-28T21:11:43.849Z,9.90
2019-04-28T21:14:12.539Z,9.80
2019-04-28T21:16:41.260Z,9.80
2019-04-28T21:19:09.773Z,9.80
2019-04-28T21:21:38.199Z,9.80
2019-04-28T21:24:06.924Z,9.70
2019-04-28T21:26:35.698Z,9.70
2019-04-28T21:29:04.091Z,9.60
2019-04-28T21:31:33.079Z,9.60
2019-04-28T21:34:01.595Z,9.60
2019-04-28T21:36:30.105Z,9.60
2019-04-28T21:38:58.644Z,9.60
2019-04-28T21:41:27.430Z,9.60
2019-04-28T21:43:59.112Z,9.50
2019-04-28T21:46:31.970Z,9.50
2019-04-28T21:49:04.065Z,9.50
2019-04-28T21:51:32.516Z,9.40
2019-04-28T21:54:03.611Z,9.40
2019-04-28T21:56:32.088Z,9.30
2019-04-28T21:59:00.674Z,9.30
2019-04-28T22:01:29.458Z,9.20
2019-04-28T22:03:58.173Z,9.20
2019-04-28T22:06:26.885Z,9.10
2019-04-28T22:08:55.747Z,9.10
2019-04-28T22:11:24.597Z,9.10
2019-04-28T22:13:53.029Z,9.10
2019-04-28T22:16:22.244Z,9.10
2019-04-28T22:18:50.818Z,9.10
2019-04-28T22:21:19.283Z,9.00
2019-04-28T22:23:52.386Z,9.00
2019-04-28T22:26:38.788Z,9.00
2019-04-28T22:29:07.541Z,9.00
2019-04-28T22:31:36.031Z,9.00
2019-04-28T22:34:04.779Z,9.00
2019-04-28T22:36:33.625Z,9.00
2019-04-28T22:39:02.079Z,9.00
2019-04-28T22:41:30.722Z,8.90
2019-04-28T22:43:59.367Z,8.90
2019-04-28T22:46:27.897Z,8.90
2019-04-28T22:48:58.046Z,8.90
2019-04-28T22:51:26.979Z,8.90
2019-04-28T22:53:56.097Z,8.80
2019-04-28T22:56:27.173Z,8.80
2019-04-28T22:58:57.411Z,8.80
2019-04-28T23:01:30.400Z,8.80
2019-04-28T23:04:07.356Z,8.80
2019-04-28T23:06:36.437Z,8.80
2019-04-28T23:09:07.562Z,8.80
2019-04-28T23:11:39.272Z,8.80
2019-04-28T23:14:08.133Z,8.80
2019-04-28T23:16:36.914Z,8.80
2019-04-28T23:19:07.089Z,8.80
2019-04-28T23:21:37.468Z,8.80
2019-04-28T23:24:06.044Z,8.80
2019-04-28T23:26:34.587Z,8.70
2019-04-28T23:29:03.434Z,8.70
2019-04-28T23:31:31.853Z,8.70
2019-04-28T23:34:00.321Z,8.70
2019-04-28T23:36:28.768Z,8.70
2019-04-28T23:38:57.634Z,8.70
2019-04-28T23:41:28.528Z,8.70
2019-04-28T23:43:56.964Z,8.60
2019-04-28T23:46:27.349Z,8.60
2019-04-28T23:48:56.822Z,8.60
2019-04-28T23:51:32.889Z,8.60
2019-04-28T23:54:07.132Z,8.60
2019-04-28T23:56:35.733Z,8.60
2019-04-28T23:59:05.328Z,8.60
